sensor_id;sensor_type;location;lat;lon;timestamp;pressure;altitude;pressure_sealevel;temperature;humidity
47166;BME280;32930;51.112;13.762;2023-10-31T05:58:03;97379.09;;;14.34;100.00
47166;BME280;32930;51.112;13.762;2023-10-31T06:00:28;97396.13;;;14.38;100.00
47166;BME280;32930;51.112;13.762;2023-10-31T06:02:53;97397.94;;;14.36;100.00
47166;BME280;32930;51.112;13.762;2023-10-31T06:05:18;97392.63;;;14.39;100.00
47166;BME280;32930;51.112;13.762;2023-10-31T06:07:44;97397.94;;;14.36;100.00
47166;BME280;32930;51.112;13.762;2023-10-31T06:10:09;97413.28;;;14.39;100.00
47166;BME280;32930;51.112;13.762;2023-10-31T06:12:34;97427.13;;;14.36;100.00
47166;BME280;32930;51.112;13.762;2023-10-31T06:15:00;97429.66;;;14.38;100.00
47166;BME280;32930;51.112;13.762;2023-10-31T06:17:25;97434.75;;;14.40;100.00
47166;BME280;32930;51.112;13.762;2023-10-31T06:19:51;97437.28;;;14.41;100.00
47166;BME280;32930;51.112;13.762;2023-10-31T06:22:16;97446.28;;;14.31;100.00
47166;BME280;32930;51.112;13.762;2023-10-31T06:24:41;97457.47;;;14.31;100.00
47166;BME280;32930;51.112;13.762;2023-10-31T06:27:07;97473.59;;;14.16;100.00
47166;BME280;32930;51.112;13.762;2023-10-31T06:29:32;97464.94;;;14.17;100.00
47166;BME280;32930;51.112;13.762;2023-10-31T06:31:57;97476.31;;;14.13;100.00
47166;BME280;32930;51.112;13.762;2023-10-31T06:34:23;97471.50;;;14.24;100.00
47166;BME280;32930;51.112;13.762;2023-10-31T06:36:48;97484.63;;;14.20;100.00
47166;BME280;32930;51.112;13.762;2023-10-31T06:39:13;97491.44;;;14.21;100.00
47166;BME280;32930;51.112;13.762;2023-10-31T06:41:38;97488.13;;;14.19;100.00
47166;BME280;32930;51.112;13.762;2023-10-31T06:44:10;97495.19;;;14.13;100.00
47166;BME280;32930;51.112;13.762;2023-10-31T06:46:35;97503.06;;;14.10;100.00
47166;BME280;32930;51.112;13.762;2023-10-31T06:49:00;97496.47;;;14.24;100.00
47166;BME280;32930;51.112;13.762;2023-10-31T06:51:28;97510.53;;;14.17;100.00
47166;BME280;32930;51.112;13.762;2023-10-31T06:53:53;97516.72;;;14.12;100.00
47166;BME280;32930;51.112;13.762;2023-10-31T06:56:22;97525.03;;;14.19;100.00
47166;BME280;32930;51.112;13.762;2023-10-31T06:58:47;97524.78;;;14.25;100.00
47166;BME280;32930;51.112;13.762;2023-10-31T07:01:12;97532.34;;;14.09;100.00
47166;BME280;32930;51.112;13.762;2023-10-31T07:03:43;97537.66;;;14.05;100.00
47166;BME280;32930;51.112;13.762;2023-10-31T07:06:08;97546.50;;;14.20;100.00
47166;BME280;32930;51.112;13.762;2023-10-31T07:08:33;97540.31;;;14.24;100.00
47166;BME280;32930;51.112;13.762;2023-10-31T07:10:59;97544.19;;;14.13;100.00
47166;BME280;32930;51.112;13.762;2023-10-31T07:13:24;97539.06;;;14.12;100.00
47166;BME280;32930;51.112;13.762;2023-10-31T07:15:52;97549.50;;;14.09;100.00
47166;BME280;32930;51.112;13.762;2023-10-31T07:38:42;97602.81;;;14.08;100.00
47166;BME280;32930;51.112;13.762;2023-10-31T07:41:07;97594.84;;;14.14;100.00
47166;BME280;32930;51.112;13.762;2023-10-31T07:43:32;97614.84;;;14.09;100.00
47166;BME280;32930;51.112;13.762;2023-10-31T07:45:57;97618.78;;;13.96;100.00
47166;BME280;32930;51.112;13.762;2023-10-31T07:48:23;97630.06;;;14.16;100.00
47166;BME280;32930;51.112;13.762;2023-10-31T07:50:48;97637.50;;;14.01;100.00
47166;BME280;32930;51.112;13.762;2023-10-31T07:55:44;97623.03;;;14.19;100.00
47166;BME280;32930;51.112;13.762;2023-10-31T07:58:10;97627.34;;;14.19;100.00
47166;BME280;32930;51.112;13.762;2023-10-31T08:00:35;97628.91;;;14.23;100.00
47166;BME280;32930;51.112;13.762;2023-10-31T08:03:01;97635.81;;;14.22;100.00
47166;BME280;32930;51.112;13.762;2023-10-31T08:05:26;97642.44;;;14.06;100.00
47166;BME280;32930;51.112;13.762;2023-10-31T08:07:52;97659.38;;;13.91;100.00
47166;BME280;32930;51.112;13.762;2023-10-31T08:10:17;97670.75;;;13.85;100.00
47166;BME280;32930;51.112;13.762;2023-10-31T09:12:15;97714.50;;;14.54;100.00
47166;BME280;32930;51.112;13.762;2023-10-31T09:14:40;97734.44;;;14.49;100.00
47166;BME280;32930;51.112;13.762;2023-10-31T09:17:06;97732.44;;;14.57;100.00
47166;BME280;32930;51.112;13.762;2023-10-31T09:22:01;97725.16;;;14.45;100.00
47166;BME280;32930;51.112;13.762;2023-10-31T09:24:26;97729.75;;;14.37;100.00
47166;BME280;32930;51.112;13.762;2023-10-31T09:26:57;97723.19;;;14.30;100.00
47166;BME280;32930;51.112;13.762;2023-10-31T09:29:28;97728.41;;;14.50;100.00
47166;BME280;32930;51.112;13.762;2023-10-31T09:31:57;97735.72;;;14.61;100.00
47166;BME280;32930;51.112;13.762;2023-10-31T09:34:22;97750.91;;;14.69;100.00
47166;BME280;32930;51.112;13.762;2023-10-31T09:36:47;97751.25;;;14.59;100.00
47166;BME280;32930;51.112;13.762;2023-10-31T09:39:12;97752.44;;;14.95;100.00
47166;BME280;32930;51.112;13.762;2023-10-31T09:41:38;97755.31;;;14.87;100.00
47166;BME280;32930;51.112;13.762;2023-10-31T09:44:10;97748.69;;;14.59;100.00
47166;BME280;32930;51.112;13.762;2023-10-31T09:46:36;97758.41;;;14.53;100.00
47166;BME280;32930;51.112;13.762;2023-10-31T09:49:11;97750.56;;;14.56;100.00
47166;BME280;32930;51.112;13.762;2023-10-31T09:51:37;97749.66;;;14.57;100.00
47166;BME280;32930;51.112;13.762;2023-10-31T09:54:02;97770.63;;;14.48;100.00
47166;BME280;32930;51.112;13.762;2023-10-31T09:56:28;97781.47;;;14.34;100.00
47166;BME280;32930;51.112;13.762;2023-10-31T09:59:17;97775.97;;;14.43;100.00
47166;BME280;32930;51.112;13.762;2023-10-31T10:01:43;97786.25;;;14.45;100.00
47166;BME280;32930;51.112;13.762;2023-10-31T10:04:08;97782.09;;;14.19;100.00
47166;BME280;32930;51.112;13.762;2023-10-31T10:06:34;97787.84;;;14.25;100.00
47166;BME280;32930;51.112;13.762;2023-10-31T10:09:08;97792.31;;;14.20;100.00
47166;BME280;32930;51.112;13.762;2023-10-31T10:11:33;97790.34;;;14.27;100.00
47166;BME280;32930;51.112;13.762;2023-10-31T10:16:32;97791.16;;;14.29;100.00
47166;BME280;32930;51.112;13.762;2023-10-31T10:19:13;97797.31;;;14.25;100.00
47166;BME280;32930;51.112;13.762;2023-10-31T10:21:51;97802.97;;;14.34;100.00
47166;BME280;32930;51.112;13.762;2023-10-31T10:24:24;97802.09;;;14.34;100.00
47166;BME280;32930;51.112;13.762;2023-10-31T10:26:50;97806.28;;;14.38;100.00
47166;BME280;32930;51.112;13.762;2023-10-31T10:29:16;97809.13;;;14.30;100.00
47166;BME280;32930;51.112;13.762;2023-10-31T10:31:41;97802.41;;;14.26;100.00
47166;BME280;32930;51.112;13.762;2023-10-31T10:34:08;97797.97;;;14.30;100.00
47166;BME280;32930;51.112;13.762;2023-10-31T10:36:55;97799.66;;;14.31;100.00
47166;BME280;32930;51.112;13.762;2023-10-31T10:39:22;97793.38;;;14.38;100.00
47166;BME280;32930;51.112;13.762;2023-10-31T10:41:54;97787.00;;;14.47;100.00
47166;BME280;32930;51.112;13.762;2023-10-31T10:44:30;97793.25;;;14.41;100.00
47166;BME280;32930;51.112;13.762;2023-10-31T10:49:25;97804.94;;;14.50;100.00
47166;BME280;32930;51.112;13.762;2023-10-31T10:51:52;97810.75;;;14.56;100.00
47166;BME280;32930;51.112;13.762;2023-10-31T10:54:30;97808.66;;;14.43;100.00
47166;BME280;32930;51.112;13.762;2023-10-31T11:02:29;97799.53;;;14.57;100.00
47166;BME280;32930;51.112;13.762;2023-10-31T11:04:55;97787.38;;;14.59;100.00
47166;BME280;32930;51.112;13.762;2023-10-31T11:07:21;97785.09;;;14.53;100.00
47166;BME280;32930;51.112;13.762;2023-10-31T11:27:29;97801.16;;;14.36;100.00
47166;BME280;32930;51.112;13.762;2023-10-31T11:30:04;97803.59;;;14.41;100.00
47166;BME280;32930;51.112;13.762;2023-10-31T11:32:31;97796.06;;;14.35;100.00
47166;BME280;32930;51.112;13.762;2023-10-31T11:34:56;97807.13;;;14.38;100.00
47166;BME280;32930;51.112;13.762;2023-10-31T11:37:26;97823.97;;;14.47;100.00
47166;BME280;32930;51.112;13.762;2023-10-31T12:47:01;97837.13;;;14.41;100.00
47166;BME280;32930;51.112;13.762;2023-10-31T12:49:26;97848.88;;;14.25;100.00
47166;BME280;32930;51.112;13.762;2023-10-31T12:51:56;97872.25;;;14.44;100.00
47166;BME280;32930;51.112;13.762;2023-10-31T12:54:29;97872.75;;;14.31;100.00
47166;BME280;32930;51.112;13.762;2023-10-31T12:56:58;97868.34;;;14.33;100.00
47166;BME280;32930;51.112;13.762;2023-10-31T12:59:23;97872.88;;;14.27;100.00
47166;BME280;32930;51.112;13.762;2023-10-31T13:01:49;97887.09;;;14.38;100.00
47166;BME280;32930;51.112;13.762;2023-10-31T13:04:33;97880.47;;;14.31;100.00
47166;BME280;32930;51.112;13.762;2023-10-31T13:07:04;97896.50;;;14.16;100.00
47166;BME280;32930;51.112;13.762;2023-10-31T13:09:32;97899.75;;;14.21;100.00
47166;BME280;32930;51.112;13.762;2023-10-31T13:12:00;97900.44;;;14.26;100.00
47166;BME280;32930;51.112;13.762;2023-10-31T13:14:36;97918.47;;;14.26;100.00
47166;BME280;32930;51.112;13.762;2023-10-31T13:17:07;97916.84;;;14.24;100.00
47166;BME280;32930;51.112;13.762;2023-10-31T13:19:44;97920.59;;;14.15;100.00
47166;BME280;32930;51.112;13.762;2023-10-31T13:22:10;97924.91;;;14.14;100.00
47166;BME280;32930;51.112;13.762;2023-10-31T13:24:44;97934.34;;;14.16;100.00
47166;BME280;32930;51.112;13.762;2023-10-31T13:27:10;97934.53;;;14.34;100.00
47166;BME280;32930;51.112;13.762;2023-10-31T13:29:40;97936.06;;;14.15;100.00
47166;BME280;32930;51.112;13.762;2023-10-31T13:32:05;97937.25;;;14.30;100.00
47166;BME280;32930;51.112;13.762;2023-10-31T13:37:30;97942.84;;;14.18;100.00
47166;BME280;32930;51.112;13.762;2023-10-31T13:39:55;97954.41;;;14.31;100.00
47166;BME280;32930;51.112;13.762;2023-10-31T13:42:20;97952.34;;;14.17;100.00
47166;BME280;32930;51.112;13.762;2023-10-31T13:44:45;97947.75;;;14.25;100.00
47166;BME280;32930;51.112;13.762;2023-10-31T13:47:13;97959.28;;;14.15;100.00
47166;BME280;32930;51.112;13.762;2023-10-31T13:49:39;97960.91;;;14.18;100.00
47166;BME280;32930;51.112;13.762;2023-10-31T13:52:04;97975.53;;;14.17;100.00
47166;BME280;32930;51.112;13.762;2023-10-31T13:54:31;97979.69;;;14.21;100.00
47166;BME280;32930;51.112;13.762;2023-10-31T13:56:56;97978.19;;;14.16;100.00
47166;BME280;32930;51.112;13.762;2023-10-31T13:59:21;97980.19;;;14.07;100.00
47166;BME280;32930;51.112;13.762;2023-10-31T14:01:47;97980.09;;;14.09;100.00
47166;BME280;32930;51.112;13.762;2023-10-31T14:04:12;97984.00;;;13.96;100.00
47166;BME280;32930;51.112;13.762;2023-10-31T14:06:41;97988.81;;;14.06;100.00
47166;BME280;32930;51.112;13.762;2023-10-31T14:09:06;97979.25;;;14.10;100.00
47166;BME280;32930;51.112;13.762;2023-10-31T14:11:32;97979.97;;;14.13;100.00
47166;BME280;32930;51.112;13.762;2023-10-31T14:13:58;97989.25;;;14.19;100.00
47166;BME280;32930;51.112;13.762;2023-10-31T14:16:28;97988.34;;;14.20;100.00
47166;BME280;32930;51.112;13.762;2023-10-31T14:18:53;97985.75;;;14.20;100.00
47166;BME280;32930;51.112;13.762;2023-10-31T14:21:18;97978.75;;;14.24;100.00
47166;BME280;32930;51.112;13.762;2023-10-31T14:23:43;97971.44;;;14.11;100.00
47166;BME280;32930;51.112;13.762;2023-10-31T14:26:10;97973.13;;;14.12;100.00
47166;BME280;32930;51.112;13.762;2023-10-31T14:28:37;97965.44;;;14.11;100.00
47166;BME280;32930;51.112;13.762;2023-10-31T14:31:04;97974.59;;;14.20;100.00
47166;BME280;32930;51.112;13.762;2023-10-31T14:33:29;97974.63;;;14.18;100.00
47166;BME280;32930;51.112;13.762;2023-10-31T14:35:55;97986.13;;;14.09;100.00
47166;BME280;32930;51.112;13.762;2023-10-31T14:38:20;97986.81;;;14.14;100.00
47166;BME280;32930;51.112;13.762;2023-10-31T14:40:45;97984.31;;;14.11;100.00
47166;BME280;32930;51.112;13.762;2023-10-31T14:43:10;97965.41;;;14.12;100.00
47166;BME280;32930;51.112;13.762;2023-10-31T14:45:40;97974.84;;;14.12;100.00
47166;BME280;32930;51.112;13.762;2023-10-31T14:48:05;97973.03;;;14.16;100.00
47166;BME280;32930;51.112;13.762;2023-10-31T14:50:30;97980.09;;;14.09;100.00
47166;BME280;32930;51.112;13.762;2023-10-31T14:52:56;97978.28;;;14.12;100.00
47166;BME280;32930;51.112;13.762;2023-10-31T14:55:21;97985.38;;;14.06;100.00
47166;BME280;32930;51.112;13.762;2023-10-31T14:57:46;97988.94;;;14.03;100.00
47166;BME280;32930;51.112;13.762;2023-10-31T15:00:11;97988.72;;;14.09;100.00
47166;BME280;32930;51.112;13.762;2023-10-31T15:02:38;97980.88;;;14.12;100.00
47166;BME280;32930;51.112;13.762;2023-10-31T15:05:04;97992.75;;;14.17;100.00
47166;BME280;32930;51.112;13.762;2023-10-31T15:07:29;97987.91;;;14.07;100.00
47166;BME280;32930;51.112;13.762;2023-10-31T15:09:54;97993.16;;;14.04;100.00
47166;BME280;32930;51.112;13.762;2023-10-31T15:12:19;97994.09;;;14.03;100.00
47166;BME280;32930;51.112;13.762;2023-10-31T15:14:45;98006.88;;;14.06;100.00
47166;BME280;32930;51.112;13.762;2023-10-31T15:17:10;98004.31;;;14.05;100.00
47166;BME280;32930;51.112;13.762;2023-10-31T15:19:36;98012.38;;;13.96;100.00
47166;BME280;32930;51.112;13.762;2023-10-31T15:22:03;98015.75;;;13.98;100.00
47166;BME280;32930;51.112;13.762;2023-10-31T15:24:30;98015.56;;;14.02;100.00
47166;BME280;32930;51.112;13.762;2023-10-31T15:26:55;98020.81;;;14.01;100.00
47166;BME280;32930;51.112;13.762;2023-10-31T15:29:20;98020.94;;;13.96;100.00
47166;BME280;32930;51.112;13.762;2023-10-31T15:31:45;98024.31;;;13.98;100.00
47166;BME280;32930;51.112;13.762;2023-10-31T15:34:12;98027.00;;;13.95;100.00
47166;BME280;32930;51.112;13.762;2023-10-31T15:36:37;98028.09;;;13.88;100.00
47166;BME280;32930;51.112;13.762;2023-10-31T15:39:02;98030.13;;;13.78;100.00
47166;BME280;32930;51.112;13.762;2023-10-31T15:41:28;98036.59;;;13.90;100.00
47166;BME280;32930;51.112;13.762;2023-10-31T15:43:53;98039.09;;;13.93;100.00
47166;BME280;32930;51.112;13.762;2023-10-31T15:46:19;98039.97;;;13.92;100.00
47166;BME280;32930;51.112;13.762;2023-10-31T15:48:44;98050.47;;;13.87;100.00
47166;BME280;32930;51.112;13.762;2023-10-31T15:51:10;98052.78;;;13.95;100.00
47166;BME280;32930;51.112;13.762;2023-10-31T15:53:35;98061.41;;;13.94;100.00
47166;BME280;32930;51.112;13.762;2023-10-31T15:56:00;98060.59;;;13.92;100.00
47166;BME280;32930;51.112;13.762;2023-10-31T15:58:26;98059.78;;;13.91;100.00
47166;BME280;32930;51.112;13.762;2023-10-31T16:00:52;98071.75;;;13.93;100.00
47166;BME280;32930;51.112;13.762;2023-10-31T16:03:17;98074.50;;;13.88;100.00
47166;BME280;32930;51.112;13.762;2023-10-31T16:05:43;98067.72;;;13.84;100.00
47166;BME280;32930;51.112;13.762;2023-10-31T16:08:09;98072.66;;;13.91;100.00
47166;BME280;32930;51.112;13.762;2023-10-31T16:10:34;98080.53;;;13.87;100.00
47166;BME280;32930;51.112;13.762;2023-10-31T16:12:59;98084.72;;;13.91;100.00
47166;BME280;32930;51.112;13.762;2023-10-31T16:15:25;98080.44;;;13.90;100.00
47166;BME280;32930;51.112;13.762;2023-10-31T16:17:50;98089.25;;;13.83;100.00
47166;BME280;32930;51.112;13.762;2023-10-31T16:20:15;98093.91;;;13.72;100.00
47166;BME280;32930;51.112;13.762;2023-10-31T16:22:40;98104.13;;;13.75;100.00
47166;BME280;32930;51.112;13.762;2023-10-31T16:25:06;98120.38;;;13.77;100.00
47166;BME280;32930;51.112;13.762;2023-10-31T16:27:31;98122.56;;;13.89;100.00
47166;BME280;32930;51.112;13.762;2023-10-31T16:29:56;98126.19;;;13.83;100.00
47166;BME280;32930;51.112;13.762;2023-10-31T16:32:22;98130.38;;;13.87;100.00
47166;BME280;32930;51.112;13.762;2023-10-31T16:34:47;98143.34;;;13.84;100.00
47166;BME280;32930;51.112;13.762;2023-10-31T16:37:14;98142.53;;;13.82;100.00
47166;BME280;32930;51.112;13.762;2023-10-31T16:39:40;98152.03;;;13.80;100.00
47166;BME280;32930;51.112;13.762;2023-10-31T16:42:06;98158.19;;;13.76;100.00
47166;BME280;32930;51.112;13.762;2023-10-31T16:44:32;98153.94;;;13.75;100.00
47166;BME280;32930;51.112;13.762;2023-10-31T16:46:57;98157.94;;;13.84;100.00
47166;BME280;32930;51.112;13.762;2023-10-31T16:49:22;98158.16;;;13.78;100.00
47166;BME280;32930;51.112;13.762;2023-10-31T16:51:47;98157.19;;;13.80;100.00
47166;BME280;32930;51.112;13.762;2023-10-31T16:54:13;98171.97;;;13.75;100.00
47166;BME280;32930;51.112;13.762;2023-10-31T16:56:38;98173.81;;;13.72;100.00
47166;BME280;32930;51.112;13.762;2023-10-31T16:59:03;98170.00;;;13.83;100.00
47166;BME280;32930;51.112;13.762;2023-10-31T17:01:28;98179.75;;;13.74;100.00
47166;BME280;32930;51.112;13.762;2023-10-31T17:03:54;98189.28;;;13.72;100.00
47166;BME280;32930;51.112;13.762;2023-10-31T17:06:19;98196.13;;;13.71;100.00
47166;BME280;32930;51.112;13.762;2023-10-31T17:08:46;98191.69;;;13.76;100.00
47166;BME280;32930;51.112;13.762;2023-10-31T17:11:11;98199.59;;;13.72;100.00
47166;BME280;32930;51.112;13.762;2023-10-31T17:13:36;98205.84;;;13.63;100.00
47166;BME280;32930;51.112;13.762;2023-10-31T17:16:02;98204.25;;;13.59;100.00
47166;BME280;32930;51.112;13.762;2023-10-31T17:18:28;98210.00;;;13.67;100.00
47166;BME280;32930;51.112;13.762;2023-10-31T17:20:54;98227.47;;;13.57;100.00
47166;BME280;32930;51.112;13.762;2023-10-31T17:23:19;98222.88;;;13.67;100.00
47166;BME280;32930;51.112;13.762;2023-10-31T17:25:46;98232.19;;;13.73;100.00
47166;BME280;32930;51.112;13.762;2023-10-31T17:28:13;98227.69;;;13.50;100.00
47166;BME280;32930;51.112;13.762;2023-10-31T17:30:38;98235.59;;;13.43;100.00
47166;BME280;32930;51.112;13.762;2023-10-31T17:33:03;98237.09;;;13.51;100.00
47166;BME280;32930;51.112;13.762;2023-10-31T17:35:28;98250.06;;;13.48;100.00
47166;BME280;32930;51.112;13.762;2023-10-31T17:37:53;98235.09;;;13.60;100.00
47166;BME280;32930;51.112;13.762;2023-10-31T17:40:19;98248.50;;;13.42;100.00
47166;BME280;32930;51.112;13.762;2023-10-31T17:42:44;98243.34;;;13.42;100.00
47166;BME280;32930;51.112;13.762;2023-10-31T17:45:09;98253.63;;;13.43;100.00
47166;BME280;32930;51.112;13.762;2023-10-31T17:47:35;98263.59;;;13.56;100.00
47166;BME280;32930;51.112;13.762;2023-10-31T17:50:00;98269.63;;;13.55;100.00
47166;BME280;32930;51.112;13.762;2023-10-31T17:52:25;98274.00;;;13.53;100.00
47166;BME280;32930;51.112;13.762;2023-10-31T17:54:50;98274.00;;;13.51;100.00
47166;BME280;32930;51.112;13.762;2023-10-31T17:57:15;98275.50;;;13.60;100.00
47166;BME280;32930;51.112;13.762;2023-10-31T17:59:47;98282.34;;;13.61;100.00
47166;BME280;32930;51.112;13.762;2023-10-31T18:02:12;98283.00;;;13.67;100.00
47166;BME280;32930;51.112;13.762;2023-10-31T18:04:37;98288.47;;;13.57;100.00
47166;BME280;32930;51.112;13.762;2023-10-31T18:07:03;98288.53;;;13.54;100.00
47166;BME280;32930;51.112;13.762;2023-10-31T18:09:28;98288.72;;;13.48;100.00
47166;BME280;32930;51.112;13.762;2023-10-31T18:11:53;98295.47;;;13.52;100.00
47166;BME280;32930;51.112;13.762;2023-10-31T18:14:18;98303.31;;;13.47;100.00
47166;BME280;32930;51.112;13.762;2023-10-31T18:16:44;98302.31;;;13.53;100.00
47166;BME280;32930;51.112;13.762;2023-10-31T18:19:10;98301.38;;;13.55;100.00
47166;BME280;32930;51.112;13.762;2023-10-31T18:21:35;98308.31;;;13.53;100.00
47166;BME280;32930;51.112;13.762;2023-10-31T18:24:01;98303.09;;;13.55;100.00
47166;BME280;32930;51.112;13.762;2023-10-31T18:26:26;98309.25;;;13.51;100.00
47166;BME280;32930;51.112;13.762;2023-10-31T18:28:51;98305.00;;;13.48;100.00
47166;BME280;32930;51.112;13.762;2023-10-31T18:31:17;98308.25;;;13.56;100.00
47166;BME280;32930;51.112;13.762;2023-10-31T18:33:42;98311.75;;;13.52;100.00
47166;BME280;32930;51.112;13.762;2023-10-31T18:36:07;98311.06;;;13.47;100.00
47166;BME280;32930;51.112;13.762;2023-10-31T18:38:33;98311.97;;;13.44;100.00
47166;BME280;32930;51.112;13.762;2023-10-31T18:40:59;98313.94;;;13.35;100.00
47166;BME280;32930;51.112;13.762;2023-10-31T18:43:25;98308.41;;;13.50;100.00
47166;BME280;32930;51.112;13.762;2023-10-31T18:45:50;98308.59;;;13.42;100.00
47166;BME280;32930;51.112;13.762;2023-10-31T18:48:16;98320.38;;;13.51;100.00
47166;BME280;32930;51.112;13.762;2023-10-31T18:50:41;98321.16;;;13.55;100.00
47166;BME280;32930;51.112;13.762;2023-10-31T18:53:06;98316.22;;;13.45;100.00
47166;BME280;32930;51.112;13.762;2023-10-31T18:55:32;98320.78;;;13.36;100.00
47166;BME280;32930;51.112;13.762;2023-10-31T18:57:57;98326.50;;;13.47;100.00
47166;BME280;32930;51.112;13.762;2023-10-31T19:00:23;98323.41;;;13.34;100.00
47166;BME280;32930;51.112;13.762;2023-10-31T19:02:48;98320.69;;;13.39;100.00
47166;BME280;32930;51.112;13.762;2023-10-31T19:05:13;98333.41;;;13.47;100.00
47166;BME280;32930;51.112;13.762;2023-10-31T19:07:39;98332.59;;;13.44;100.00
47166;BME280;32930;51.112;13.762;2023-10-31T19:10:05;98334.19;;;13.49;100.00
47166;BME280;32930;51.112;13.762;2023-10-31T19:12:31;98334.34;;;13.42;100.00
47166;BME280;32930;51.112;13.762;2023-10-31T19:14:56;98342.72;;;13.51;100.00
47166;BME280;32930;51.112;13.762;2023-10-31T19:17:21;98341.06;;;13.50;100.00
47166;BME280;32930;51.112;13.762;2023-10-31T19:19:47;98353.13;;;13.46;100.00
47166;BME280;32930;51.112;13.762;2023-10-31T19:22:13;98356.84;;;13.36;100.00
47166;BME280;32930;51.112;13.762;2023-10-31T19:24:38;98354.25;;;13.37;100.00
47166;BME280;32930;51.112;13.762;2023-10-31T19:27:03;98361.59;;;13.51;100.00
47166;BME280;32930;51.112;13.762;2023-10-31T19:29:28;98359.16;;;13.47;100.00
47166;BME280;32930;51.112;13.762;2023-10-31T19:31:54;98355.16;;;13.35;100.00
47166;BME280;32930;51.112;13.762;2023-10-31T19:34:19;98365.16;;;13.47;100.00
47166;BME280;32930;51.112;13.762;2023-10-31T19:36:44;98368.13;;;13.32;100.00
47166;BME280;32930;51.112;13.762;2023-10-31T19:39:10;98364.34;;;13.45;100.00
47166;BME280;32930;51.112;13.762;2023-10-31T19:41:35;98379.09;;;13.40;100.00
47166;BME280;32930;51.112;13.762;2023-10-31T19:44:00;98369.88;;;13.30;100.00
47166;BME280;32930;51.112;13.762;2023-10-31T19:46:27;98373.38;;;13.27;100.00
47166;BME280;32930;51.112;13.762;2023-10-31T19:48:53;98382.44;;;13.42;100.00
47166;BME280;32930;51.112;13.762;2023-10-31T19:51:20;98385.78;;;13.45;100.00
47166;BME280;32930;51.112;13.762;2023-10-31T19:53:46;98384.19;;;13.41;100.00
47166;BME280;32930;51.112;13.762;2023-10-31T19:56:18;98391.75;;;13.48;100.00
47166;BME280;32930;51.112;13.762;2023-10-31T19:58:43;98403.81;;;13.47;100.00
47166;BME280;32930;51.112;13.762;2023-10-31T20:01:08;98399.56;;;13.44;100.00
47166;BME280;32930;51.112;13.762;2023-10-31T20:03:34;98400.47;;;13.42;100.00
47166;BME280;32930;51.112;13.762;2023-10-31T20:05:59;98404.66;;;13.46;100.00
47166;BME280;32930;51.112;13.762;2023-10-31T20:08:24;98394.63;;;13.37;100.00
47166;BME280;32930;51.112;13.762;2023-10-31T20:10:50;98404.91;;;13.37;100.00
47166;BME280;32930;51.112;13.762;2023-10-31T20:13:15;98410.03;;;13.38;100.00
47166;BME280;32930;51.112;13.762;2023-10-31T20:15:41;98412.38;;;13.46;100.00
47166;BME280;32930;51.112;13.762;2023-10-31T20:18:07;98409.31;;;13.32;100.00
47166;BME280;32930;51.112;13.762;2023-10-31T20:20:32;98417.66;;;13.41;100.00
47166;BME280;32930;51.112;13.762;2023-10-31T20:22:58;98408.13;;;13.45;100.00
47166;BME280;32930;51.112;13.762;2023-10-31T20:25:23;98407.66;;;13.31;100.00
47166;BME280;32930;51.112;13.762;2023-10-31T20:27:49;98423.09;;;13.31;100.00
47166;BME280;32930;51.112;13.762;2023-10-31T20:30:14;98421.31;;;13.33;100.00
47166;BME280;32930;51.112;13.762;2023-10-31T20:32:39;98424.09;;;13.25;100.00
47166;BME280;32930;51.112;13.762;2023-10-31T20:35:05;98421.44;;;13.28;100.00
47166;BME280;32930;51.112;13.762;2023-10-31T20:37:31;98422.44;;;13.21;100.00
47166;BME280;32930;51.112;13.762;2023-10-31T20:39:57;98427.50;;;13.26;100.00
47166;BME280;32930;51.112;13.762;2023-10-31T20:42:22;98429.22;;;13.23;100.00
47166;BME280;32930;51.112;13.762;2023-10-31T20:44:48;98427.66;;;13.18;100.00
47166;BME280;32930;51.112;13.762;2023-10-31T20:47:13;98428.38;;;13.23;100.00
47166;BME280;32930;51.112;13.762;2023-10-31T20:49:38;98435.41;;;13.16;100.00
47166;BME280;32930;51.112;13.762;2023-10-31T20:52:04;98439.59;;;13.20;100.00
47166;BME280;32930;51.112;13.762;2023-10-31T20:54:29;98435.97;;;13.31;100.00
47166;BME280;32930;51.112;13.762;2023-10-31T20:56:54;98436.84;;;13.30;100.00
47166;BME280;32930;51.112;13.762;2023-10-31T20:59:21;98436.19;;;13.20;100.00
47166;BME280;32930;51.112;13.762;2023-10-31T21:01:47;98432.75;;;13.19;100.00
47166;BME280;32930;51.112;13.762;2023-10-31T21:04:13;98442.06;;;13.27;100.00
47166;BME280;32930;51.112;13.762;2023-10-31T21:06:39;98444.66;;;13.23;100.00
47166;BME280;32930;51.112;13.762;2023-10-31T21:09:04;98437.97;;;13.16;100.00
47166;BME280;32930;51.112;13.762;2023-10-31T21:11:29;98440.38;;;13.26;100.00
47166;BME280;32930;51.112;13.762;2023-10-31T21:13:54;98445.47;;;13.27;100.00
47166;BME280;32930;51.112;13.762;2023-10-31T21:16:20;98445.63;;;13.21;100.00
47166;BME280;32930;51.112;13.762;2023-10-31T21:18:45;98449.94;;;13.19;100.00
47166;BME280;32930;51.112;13.762;2023-10-31T21:21:11;98445.91;;;13.09;100.00
47166;BME280;32930;51.112;13.762;2023-10-31T21:23:36;98456.59;;;13.29;100.00
47166;BME280;32930;51.112;13.762;2023-10-31T21:26:01;98449.78;;;13.28;100.00
47166;BME280;32930;51.112;13.762;2023-10-31T21:28:27;98447.25;;;13.23;100.00
47166;BME280;32930;51.112;13.762;2023-10-31T21:30:52;98456.66;;;13.28;100.00
47166;BME280;32930;51.112;13.762;2023-10-31T21:33:19;98460.41;;;13.11;100.00
47166;BME280;32930;51.112;13.762;2023-10-31T21:35:44;98461.94;;;13.20;100.00